Time;durP1;ratioP1;P1;durP2;ratioP2;P2;SDS_P1;SDS_P2;PMS_P1;PMS_P2;Temp;Humidity;BMP_temperature;BMP_pressure;BME280_temperature;BME280_humidity;BME280_pressure;Samples;Min_cycle;Max_cycle;Signal;HPM_P1;HPM_P2
2023/09/05 00:01:51;;;;;;;3.17;2.20;;;22.20;99.90;;;;;;5012514;28;20474;-57
2023/09/05 00:04:18;;;;;;;2.40;2.20;;;22.20;99.90;;;;;;5010789;28;20492;-59
2023/09/05 00:06:46;;;;;;;2.40;2.20;;;22.20;99.90;;;;;;5014407;28;20468;-51
2023/09/05 00:09:13;;;;;;;2.37;2.17;;;22.20;99.90;;;;;;5015733;28;20478;-58
2023/09/05 00:11:42;;;;;;;1.90;1.70;;;22.20;99.90;;;;;;5013868;28;20466;-57
2023/09/05 00:14:10;;;;;;;3.10;2.20;;;22.20;99.90;;;;;;5012994;28;20469;-63
2023/09/05 00:16:37;;;;;;;2.77;2.40;;;22.20;99.90;;;;;;5012250;28;20462;-57
2023/09/05 00:19:04;;;;;;;2.20;2.00;;;22.20;99.90;;;;;;5015273;28;20497;-59
2023/09/05 00:21:31;;;;;;;2.83;2.13;;;22.20;99.90;;;;;;5001139;28;20469;-55
2023/09/05 00:24:25;;;;;;;2.20;2.00;;;22.10;99.90;;;;;;5006581;28;20788;-58
2023/09/05 00:26:54;;;;;;;2.27;2.07;;;22.10;99.90;;;;;;5005990;28;20537;-58
2023/09/05 00:29:20;;;;;;;4.73;2.07;;;22.10;99.90;;;;;;5008272;28;20458;-62
2023/09/05 00:31:47;;;;;;;2.60;2.40;;;22.10;99.90;;;;;;5006253;28;20938;-59
2023/09/05 00:34:14;;;;;;;2.77;2.50;;;22.10;99.90;;;;;;5003998;28;20551;-61
2023/09/05 00:36:41;;;;;;;2.27;2.07;;;22.10;99.90;;;;;;5000604;28;20459;-57
2023/09/05 00:39:08;;;;;;;2.63;2.43;;;22.10;99.90;;;;;;5002699;28;20804;-53
2023/09/05 00:41:35;;;;;;;2.70;1.80;;;22.10;99.90;;;;;;5008386;28;20458;-57
2023/09/05 00:44:03;;;;;;;3.03;2.17;;;22.10;99.90;;;;;;5002194;28;20978;-56
2023/09/05 00:46:32;;;;;;;3.53;2.27;;;22.10;99.90;;;;;;5004812;28;20463;-63
2023/09/05 00:49:02;;;;;;;3.60;2.10;;;22.10;99.90;;;;;;5012088;28;20454;-58
2023/09/05 00:51:31;;;;;;;3.10;2.23;;;22.10;99.90;;;;;;5007100;28;20484;-57
2023/09/05 00:53:58;;;;;;;1.90;1.70;;;22.10;99.90;;;;;;5011469;28;20474;-58
2023/09/05 00:56:24;;;;;;;2.40;2.20;;;22.10;99.90;;;;;;5010781;28;20489;-60
2023/09/05 00:58:51;;;;;;;2.40;2.20;;;22.10;99.90;;;;;;5009566;28;20458;-54
2023/09/05 01:01:19;;;;;;;3.47;2.30;;;22.10;99.90;;;;;;5008233;28;21804;-55
2023/09/05 01:03:46;;;;;;;3.57;2.37;;;22.10;99.90;;;;;;5011872;28;20819;-57
2023/09/05 01:06:22;;;;;;;2.60;2.40;;;22.10;99.90;;;;;;5007122;28;20466;-57
2023/09/05 01:08:57;;;;;;;2.47;2.27;;;22.10;99.90;;;;;;5011571;28;20463;-54
2023/09/05 01:11:25;;;;;;;3.60;2.27;;;22.10;99.90;;;;;;5008746;28;20458;-59
2023/09/05 01:13:52;;;;;;;2.57;2.30;;;22.10;99.90;;;;;;5016785;28;20478;-55
2023/09/05 01:16:20;;;;;;;2.30;2.10;;;22.10;99.90;;;;;;5010572;28;20493;-60
2023/09/05 01:18:47;;;;;;;3.70;2.10;;;22.10;99.90;;;;;;5011699;28;20470;-57
2023/09/05 01:21:20;;;;;;;1.70;1.60;;;22.10;99.90;;;;;;5008699;28;20466;-60
2023/09/05 01:23:55;;;;;;;2.20;2.00;;;22.10;99.90;;;;;;5002101;28;21000;-56
2023/09/05 01:26:23;;;;;;;2.27;2.00;;;22.10;99.90;;;;;;5011145;28;20512;-55
2023/09/05 01:28:51;;;;;;;2.10;1.90;;;22.10;99.90;;;;;;5008823;28;20517;-53
2023/09/05 01:31:18;;;;;;;3.20;1.93;;;22.10;99.90;;;;;;5004026;28;22346;-61
2023/09/05 01:33:45;;;;;;;2.43;1.93;;;22.10;99.90;;;;;;5013462;28;20473;-63
2023/09/05 01:36:12;;;;;;;2.10;1.80;;;22.10;99.90;;;;;;5003973;28;20487;-54
2023/09/05 01:38:38;;;;;;;2.53;2.33;;;22.10;99.90;;;;;;5012403;28;20466;-52
2023/09/05 01:41:05;;;;;;;2.10;1.90;;;22.10;99.90;;;;;;5005425;28;21185;-56
2023/09/05 01:43:33;;;;;;;2.70;2.40;;;22.10;99.90;;;;;;5010099;28;20542;-56
2023/09/05 01:46:00;;;;;;;2.03;1.80;;;22.10;99.90;;;;;;5008033;28;20459;-56
2023/09/05 01:48:26;;;;;;;2.07;1.90;;;22.10;99.90;;;;;;5010382;28;20991;-55
2023/09/05 01:50:53;;;;;;;2.23;2.03;;;22.10;99.90;;;;;;5004267;28;20545;-59
2023/09/05 01:53:20;;;;;;;2.37;2.17;;;22.10;99.90;;;;;;5008431;28;20461;-54
2023/09/05 01:55:47;;;;;;;1.90;1.80;;;22.10;99.90;;;;;;5014492;28;20481;-56
2023/09/05 01:58:13;;;;;;;3.73;2.27;;;22.10;99.90;;;;;;5015162;28;20458;-60
2023/09/05 02:00:41;;;;;;;2.00;1.80;;;22.10;99.90;;;;;;5013696;28;20458;-62
2023/09/05 02:03:09;;;;;;;2.43;2.23;;;22.10;99.90;;;;;;5012471;28;20702;-57
2023/09/05 02:05:36;;;;;;;2.73;2.53;;;22.10;99.90;;;;;;5018738;28;20469;-56
2023/09/05 02:08:02;;;;;;;2.83;2.63;;;22.10;99.90;;;;;;5019500;28;20467;-54
2023/09/05 02:10:31;;;;;;;3.07;2.40;;;22.10;99.90;;;;;;5016140;28;20466;-59
2023/09/05 02:12:57;;;;;;;3.10;2.40;;;22.10;99.90;;;;;;5017322;28;20493;-56
2023/09/05 02:15:24;;;;;;;3.03;1.80;;;22.10;99.90;;;;;;5014328;28;20474;-53
2023/09/05 02:17:55;;;;;;;2.47;2.00;;;22.10;99.90;;;;;;5010843;28;20467;-56
2023/09/05 02:20:22;;;;;;;2.33;2.13;;;22.10;99.90;;;;;;5011663;28;20490;-54
2023/09/05 02:26:42;;;;;;;2.80;2.20;;;22.10;99.90;;;;;;5009659;28;20520;-61
2023/09/05 02:29:09;;;;;;;2.10;1.73;;;22.10;99.90;;;;;;4997008;28;20457;-60
2023/09/05 02:31:36;;;;;;;2.30;1.90;;;22.00;99.90;;;;;;5004190;28;20736;-58
2023/09/05 02:34:04;;;;;;;2.40;2.20;;;22.00;99.90;;;;;;5003874;28;20488;-60
2023/09/05 02:36:31;;;;;;;2.30;2.10;;;22.10;99.90;;;;;;5004470;28;20493;-59
2023/09/05 02:38:58;;;;;;;2.57;2.30;;;22.00;99.90;;;;;;5001061;28;20969;-64
2023/09/05 02:41:25;;;;;;;2.00;1.80;;;22.00;99.90;;;;;;5003858;28;20509;-64
2023/09/05 02:43:52;;;;;;;2.70;2.20;;;22.00;99.90;;;;;;5001435;28;20481;-61
2023/09/05 02:46:18;;;;;;;3.70;2.20;;;22.00;99.90;;;;;;5002040;28;20979;-58
2023/09/05 02:48:45;;;;;;;2.30;2.00;;;22.10;99.90;;;;;;5002883;28;20732;-61
2023/09/05 02:51:14;;;;;;;2.40;1.93;;;22.00;99.90;;;;;;5001004;28;20469;-55
2023/09/05 02:53:40;;;;;;;2.03;1.93;;;22.10;99.90;;;;;;4999955;28;20458;-56
2023/09/05 02:56:07;;;;;;;2.43;2.23;;;22.00;99.90;;;;;;4993425;28;20474;-59
2023/09/05 02:58:34;;;;;;;2.10;1.93;;;22.00;99.90;;;;;;5003880;28;20477;-55
2023/09/05 03:01:02;;;;;;;1.53;1.37;;;22.00;99.90;;;;;;5009831;28;20462;-58
2023/09/05 03:03:29;;;;;;;2.37;2.13;;;22.00;99.90;;;;;;5010998;28;20471;-63
2023/09/05 03:05:57;;;;;;;2.10;1.90;;;22.00;99.90;;;;;;5003307;28;21481;-63
2023/09/05 03:08:25;;;;;;;2.20;2.00;;;22.00;99.90;;;;;;5002781;28;20462;-56
2023/09/05 03:10:53;;;;;;;2.50;2.10;;;22.00;99.90;;;;;;5000806;28;21019;-62
2023/09/05 03:13:20;;;;;;;1.80;1.50;;;22.00;99.90;;;;;;5004942;28;20485;-57
2023/09/05 03:15:52;;;;;;;2.37;2.17;;;22.00;99.90;;;;;;4998902;28;21016;-64
2023/09/05 03:18:19;;;;;;;2.50;1.67;;;22.00;99.90;;;;;;5000245;28;20471;-62
2023/09/05 03:20:46;;;;;;;1.90;1.80;;;22.00;99.90;;;;;;5005546;28;20989;-64
2023/09/05 03:23:12;;;;;;;1.90;1.77;;;22.00;99.90;;;;;;5003498;28;20974;-61
2023/09/05 03:25:40;;;;;;;2.23;2.03;;;22.00;99.90;;;;;;5007280;28;20974;-55
2023/09/05 03:28:07;;;;;;;1.83;1.73;;;22.00;99.90;;;;;;5001043;28;20461;-61
2023/09/05 03:30:34;;;;;;;1.90;1.70;;;22.00;99.90;;;;;;5004139;28;20466;-61
2023/09/05 03:33:00;;;;;;;1.90;1.80;;;22.00;99.90;;;;;;5002860;28;20472;-63
2023/09/05 03:35:27;;;;;;;2.20;2.00;;;22.00;99.90;;;;;;5007065;28;20482;-53
2023/09/05 03:37:54;;;;;;;2.17;1.97;;;22.00;99.90;;;;;;5004827;28;20460;-58
2023/09/05 03:40:20;;;;;;;2.97;2.03;;;22.00;99.90;;;;;;5004366;28;20822;-62
2023/09/05 03:42:49;;;;;;;1.70;1.60;;;22.00;99.90;;;;;;5002440;28;20462;-54
2023/09/05 03:45:16;;;;;;;2.47;2.27;;;22.00;99.90;;;;;;4999764;28;20462;-56
2023/09/05 03:47:42;;;;;;;2.10;2.00;;;22.00;99.90;;;;;;4999632;28;20463;-54
2023/09/05 03:50:09;;;;;;;1.90;1.80;;;22.00;99.90;;;;;;5007218;28;20468;-54
2023/09/05 03:52:36;;;;;;;2.00;1.80;;;22.00;99.90;;;;;;5002509;28;20459;-55
2023/09/05 03:55:03;;;;;;;2.30;2.10;;;22.00;99.90;;;;;;4999553;28;20958;-59
2023/09/05 03:57:30;;;;;;;1.70;1.60;;;22.00;99.90;;;;;;5001048;28;20628;-63
2023/09/05 03:59:58;;;;;;;2.27;2.00;;;22.00;99.90;;;;;;5000615;28;20459;-61
2023/09/05 04:02:25;;;;;;;2.00;1.80;;;22.00;99.90;;;;;;4996051;28;20465;-53
2023/09/05 04:04:55;;;;;;;2.47;2.03;;;22.00;99.90;;;;;;5003870;28;20459;-52
2023/09/05 04:07:23;;;;;;;1.93;1.73;;;22.00;99.90;;;;;;5003405;28;21106;-61
2023/09/05 04:09:49;;;;;;;1.70;1.60;;;22.00;99.90;;;;;;5000762;28;20853;-55
2023/09/05 04:12:16;;;;;;;2.23;1.70;;;22.00;99.90;;;;;;5000136;28;20488;-57
2023/09/05 04:14:43;;;;;;;1.80;1.70;;;22.00;99.90;;;;;;5009996;28;20458;-56
2023/09/05 04:17:11;;;;;;;1.57;1.47;;;22.00;99.90;;;;;;5007373;28;21010;-56
2023/09/05 04:19:38;;;;;;;1.70;1.60;;;22.00;99.90;;;;;;5010781;28;20464;-55
2023/09/05 04:22:04;;;;;;;2.50;1.93;;;22.00;99.90;;;;;;5001392;28;20461;-58
2023/09/05 04:24:31;;;;;;;2.40;2.20;;;22.00;99.90;;;;;;5006884;28;20456;-57
2023/09/05 04:26:59;;;;;;;2.20;1.97;;;22.00;99.90;;;;;;5010763;28;20468;-64
2023/09/05 04:29:26;;;;;;;2.20;1.60;;;22.00;99.90;;;;;;5005171;28;20469;-57
2023/09/05 04:31:52;;;;;;;2.43;2.23;;;22.00;99.90;;;;;;5005448;28;20458;-60
2023/09/05 04:34:20;;;;;;;2.23;2.00;;;22.00;99.90;;;;;;5011139;28;20458;-61
2023/09/05 04:36:47;;;;;;;1.80;1.70;;;22.00;99.90;;;;;;5010121;28;20986;-59
2023/09/05 04:39:14;;;;;;;2.00;1.83;;;22.00;99.90;;;;;;5003546;28;20451;-59
2023/09/05 04:41:41;;;;;;;1.93;1.67;;;22.00;99.90;;;;;;5002714;28;20538;-63
2023/09/05 04:44:07;;;;;;;2.03;1.83;;;22.00;99.90;;;;;;5006318;28;20473;-55
2023/09/05 04:46:38;;;;;;;2.33;2.03;;;22.00;99.90;;;;;;5012892;28;20492;-60
2023/09/05 04:49:05;;;;;;;2.23;2.07;;;22.00;99.90;;;;;;5010912;28;20463;-59
2023/09/05 04:51:33;;;;;;;2.30;2.10;;;22.00;99.90;;;;;;5005851;28;20513;-56
2023/09/05 04:53:59;;;;;;;2.07;1.80;;;22.00;99.90;;;;;;5001336;28;20470;-63
2023/09/05 04:56:26;;;;;;;2.23;1.70;;;22.00;99.90;;;;;;5007069;28;20509;-55
2023/09/05 04:58:53;;;;;;;1.90;1.80;;;22.00;99.90;;;;;;4999606;28;20459;-57
2023/09/05 05:01:19;;;;;;;3.67;1.73;;;22.00;99.90;;;;;;5012494;28;20459;-57
2023/09/05 05:03:46;;;;;;;2.30;2.10;;;22.00;99.90;;;;;;5012338;28;20439;-54
2023/09/05 05:06:13;;;;;;;2.50;2.30;;;22.00;99.90;;;;;;5008933;28;20461;-57
2023/09/05 05:08:41;;;;;;;2.83;2.13;;;22.00;99.90;;;;;;5003010;28;20844;-60
2023/09/05 05:11:08;;;;;;;2.10;1.93;;;22.00;99.90;;;;;;5004845;28;20471;-58
2023/09/05 05:13:35;;;;;;;2.17;1.93;;;22.00;99.90;;;;;;5013219;28;20481;-62
2023/09/05 05:16:01;;;;;;;1.90;1.80;;;21.90;99.90;;;;;;5008105;28;20506;-57
2023/09/05 05:18:28;;;;;;;1.53;1.43;;;21.90;99.90;;;;;;5007849;28;20463;-63
2023/09/05 05:20:55;;;;;;;2.10;1.73;;;21.90;99.90;;;;;;5007686;28;20800;-58
2023/09/05 05:23:21;;;;;;;1.80;1.70;;;21.90;99.90;;;;;;5008357;28;20470;-55
2023/09/05 05:25:49;;;;;;;1.77;1.60;;;21.90;99.90;;;;;;5004263;28;20459;-62
2023/09/05 05:28:16;;;;;;;1.90;1.47;;;21.90;99.90;;;;;;5005039;28;20467;-58
2023/09/05 05:30:43;;;;;;;2.17;1.97;;;21.90;99.90;;;;;;5009426;28;20713;-56
2023/09/05 05:33:10;;;;;;;2.30;2.10;;;21.90;99.90;;;;;;5013676;28;20458;-54
2023/09/05 05:35:37;;;;;;;2.13;1.83;;;21.90;99.90;;;;;;5006768;28;20547;-61
2023/09/05 05:38:04;;;;;;;2.50;1.97;;;21.90;99.90;;;;;;5002919;28;20478;-55
2023/09/05 05:40:31;;;;;;;1.97;1.70;;;21.90;99.90;;;;;;5006131;28;20477;-60
2023/09/05 05:43:00;;;;;;;2.17;1.83;;;21.90;99.90;;;;;;5012213;28;20465;-52
2023/09/05 05:45:26;;;;;;;2.50;2.30;;;21.90;99.90;;;;;;5015129;28;20600;-56
2023/09/05 05:47:55;;;;;;;1.90;1.70;;;21.90;99.90;;;;;;5014585;28;20466;-59
2023/09/05 05:50:22;;;;;;;2.70;2.20;;;21.90;99.90;;;;;;5007648;28;20545;-57
2023/09/05 05:52:49;;;;;;;2.27;2.10;;;21.90;99.90;;;;;;4999296;28;20809;-56
2023/09/05 05:55:15;;;;;;;1.90;1.60;;;21.90;99.90;;;;;;5000894;28;20447;-60
2023/09/05 05:57:42;;;;;;;2.10;1.60;;;21.90;99.90;;;;;;4995888;28;20493;-62
2023/09/05 06:00:11;;;;;;;2.37;2.10;;;21.90;99.90;;;;;;4998115;28;20463;-57
2023/09/05 06:02:37;;;;;;;1.70;1.60;;;21.90;99.90;;;;;;5001465;28;20473;-58
2023/09/05 06:05:07;;;;;;;2.90;1.60;;;21.90;99.90;;;;;;5000803;28;20459;-57
2023/09/05 06:07:34;;;;;;;2.20;2.00;;;21.90;99.90;;;;;;5003423;28;20544;-61
2023/09/05 06:10:01;;;;;;;2.10;2.00;;;21.90;99.90;;;;;;5008436;28;20819;-63
2023/09/05 06:12:27;;;;;;;2.50;2.23;;;21.90;99.90;;;;;;4998220;28;20466;-56
2023/09/05 06:14:54;;;;;;;2.00;1.80;;;21.90;99.90;;;;;;5001814;28;20546;-59
2023/09/05 06:17:22;;;;;;;1.70;1.60;;;22.00;99.90;;;;;;5000613;28;20479;-54
2023/09/05 06:19:50;;;;;;;2.03;1.87;;;22.00;99.90;;;;;;5003276;28;20570;-62
2023/09/05 06:22:16;;;;;;;1.87;1.40;;;22.00;99.90;;;;;;4997618;28;20962;-62
2023/09/05 06:24:43;;;;;;;1.50;1.40;;;22.00;99.90;;;;;;4998413;28;20459;-64
2023/09/05 06:27:10;;;;;;;2.07;1.87;;;22.00;99.90;;;;;;4998223;28;20481;-57
2023/09/05 06:29:37;;;;;;;1.50;1.40;;;22.00;99.90;;;;;;5011547;28;20769;-59
2023/09/05 06:32:05;;;;;;;1.60;1.50;;;22.00;99.90;;;;;;5011259;28;20467;-58
2023/09/05 06:34:33;;;;;;;2.00;1.80;;;22.00;99.90;;;;;;5009557;28;20472;-61
2023/09/05 06:37:01;;;;;;;1.87;1.77;;;22.00;99.90;;;;;;5009202;28;20494;-63
2023/09/05 06:39:28;;;;;;;2.00;1.70;;;22.00;99.90;;;;;;5009200;28;20460;-57
2023/09/05 06:41:54;;;;;;;2.83;1.77;;;22.00;99.90;;;;;;5009821;28;20791;-59
2023/09/05 06:44:21;;;;;;;1.80;1.70;;;22.00;99.90;;;;;;5008981;28;20457;-62
2023/09/05 06:46:48;;;;;;;2.57;2.37;;;22.10;99.90;;;;;;5008100;28;20465;-62
2023/09/05 06:49:14;;;;;;;1.90;1.70;;;22.10;99.90;;;;;;5005551;28;20466;-59
2023/09/05 06:51:42;;;;;;;2.00;1.80;;;22.10;99.90;;;;;;5000918;28;20455;-64
2023/09/05 06:54:09;;;;;;;2.30;1.80;;;22.10;99.90;;;;;;5007145;28;20464;-65
2023/09/05 06:56:36;;;;;;;1.90;1.57;;;22.10;99.90;;;;;;5008193;28;20512;-59
2023/09/05 06:59:02;;;;;;;1.80;1.70;;;22.10;99.90;;;;;;5007147;28;20464;-63
2023/09/05 07:01:32;;;;;;;2.43;1.77;;;22.10;99.90;;;;;;5006812;28;21177;-61
2023/09/05 07:03:59;;;;;;;1.60;1.50;;;22.10;99.90;;;;;;5005797;28;20454;-59
2023/09/05 07:06:26;;;;;;;2.20;2.10;;;22.10;99.90;;;;;;5007863;28;20823;-59
2023/09/05 07:08:54;;;;;;;1.50;1.40;;;22.10;99.90;;;;;;5005892;28;20454;-61
2023/09/05 07:11:20;;;;;;;1.60;1.50;;;22.10;99.90;;;;;;5011048;28;20961;-56
2023/09/05 07:13:47;;;;;;;2.23;1.93;;;22.20;99.90;;;;;;5002405;28;20470;-52
2023/09/05 07:16:14;;;;;;;1.70;1.60;;;22.10;99.90;;;;;;5010226;28;20462;-61
2023/09/05 07:18:40;;;;;;;1.90;1.70;;;22.10;99.90;;;;;;5010604;28;21010;-67
2023/09/05 07:21:07;;;;;;;12.10;1.90;;;22.10;99.90;;;;;;5004190;28;20486;-61
2023/09/05 07:23:34;;;;;;;3.40;2.13;;;22.20;99.90;;;;;;5004675;28;20973;-64
2023/09/05 07:26:05;;;;;;;3.13;2.20;;;22.20;99.90;;;;;;5000594;28;20456;-62
2023/09/05 07:28:32;;;;;;;4.47;2.30;;;22.20;99.90;;;;;;5004279;28;20823;-60
2023/09/05 07:30:59;;;;;;;2.67;2.47;;;22.10;99.90;;;;;;5006376;28;22063;-59
2023/09/05 07:33:25;;;;;;;2.30;1.93;;;22.20;99.90;;;;;;5008674;28;20481;-59
2023/09/05 07:35:52;;;;;;;2.37;2.17;;;22.10;99.90;;;;;;5005683;28;20709;-59
2023/09/05 07:38:21;;;;;;;3.67;2.63;;;22.20;99.90;;;;;;5003540;28;20886;-55
2023/09/05 07:40:48;;;;;;;2.87;2.40;;;22.20;99.90;;;;;;5003714;28;20885;-58
2023/09/05 07:43:16;;;;;;;2.53;2.30;;;22.20;99.90;;;;;;5004212;28;20467;-58
2023/09/05 07:45:42;;;;;;;2.90;2.03;;;22.20;99.90;;;;;;5009133;28;20494;-57
2023/09/05 07:48:09;;;;;;;2.80;2.17;;;22.20;99.90;;;;;;5010694;28;20467;-56
2023/09/05 07:50:36;;;;;;;2.00;1.80;;;22.20;99.90;;;;;;5006546;28;20969;-57
2023/09/05 07:53:03;;;;;;;3.40;1.67;;;22.20;99.90;;;;;;5006435;28;20462;-59
2023/09/05 07:55:30;;;;;;;2.97;2.30;;;22.20;99.90;;;;;;5007372;28;21336;-57
2023/09/05 07:57:57;;;;;;;2.23;2.03;;;22.20;99.90;;;;;;5002043;28;20878;-52
2023/09/05 08:00:27;;;;;;;3.00;2.60;;;22.20;99.90;;;;;;5009818;28;20581;-55
2023/09/05 08:02:54;;;;;;;3.77;2.20;;;22.20;99.90;;;;;;5003513;28;21003;-63
2023/09/05 08:05:21;;;;;;;3.67;2.60;;;22.20;99.90;;;;;;5001601;28;20545;-57
2023/09/05 08:07:48;;;;;;;4.30;1.90;;;22.20;99.90;;;;;;5006273;28;20584;-57
2023/09/05 08:10:15;;;;;;;4.37;1.93;;;22.20;99.90;;;;;;5008613;28;20465;-56
2023/09/05 08:12:42;;;;;;;2.50;2.30;;;22.20;99.90;;;;;;5011823;28;20450;-58
2023/09/05 08:15:10;;;;;;;2.53;2.20;;;22.20;99.90;;;;;;5010222;28;20496;-57
2023/09/05 08:17:39;;;;;;;4.33;2.23;;;22.20;99.90;;;;;;5011777;28;20491;-58
2023/09/05 08:20:07;;;;;;;3.70;2.37;;;22.30;99.90;;;;;;5011065;28;20938;-63
2023/09/05 08:22:33;;;;;;;5.23;2.33;;;22.30;99.90;;;;;;5007988;28;20452;-63
2023/09/05 08:25:00;;;;;;;1.93;1.83;;;22.30;99.90;;;;;;5006607;28;20459;-61
2023/09/05 08:27:29;;;;;;;3.60;1.90;;;22.30;99.90;;;;;;5007787;28;20447;-64
2023/09/05 08:29:56;;;;;;;3.13;1.87;;;22.30;99.90;;;;;;5008158;28;21452;-61
2023/09/05 08:32:23;;;;;;;2.30;1.83;;;22.30;99.90;;;;;;5002912;28;20451;-63
2023/09/05 08:34:51;;;;;;;2.63;2.07;;;22.30;99.90;;;;;;5005466;28;20459;-62
2023/09/05 08:37:19;;;;;;;3.60;3.40;;;22.30;99.90;;;;;;5004369;28;20469;-63
2023/09/05 08:39:46;;;;;;;2.13;1.93;;;22.30;99.90;;;;;;5012827;28;20455;-62
2023/09/05 08:42:13;;;;;;;2.27;2.07;;;22.30;99.90;;;;;;4993009;28;20931;-63
2023/09/05 08:44:41;;;;;;;7.70;2.23;;;22.30;99.90;;;;;;4999470;28;20965;-64
2023/09/05 08:47:08;;;;;;;2.33;2.13;;;22.30;99.90;;;;;;5000774;28;21032;-62
2023/09/05 08:49:35;;;;;;;6.20;2.47;;;22.30;99.90;;;;;;5005988;28;21064;-61
2023/09/05 08:52:05;;;;;;;5.60;2.43;;;22.30;99.90;;;;;;4998721;28;20834;-63
2023/09/05 08:54:32;;;;;;;5.17;2.00;;;22.30;99.90;;;;;;4998118;28;20463;-64
2023/09/05 08:57:00;;;;;;;2.47;2.27;;;22.30;99.90;;;;;;4999180;28;20700;-62
2023/09/05 08:59:27;;;;;;;2.33;1.73;;;22.30;99.90;;;;;;4999027;28;20462;-61
2023/09/05 09:01:53;;;;;;;2.50;1.67;;;22.30;99.90;;;;;;5001021;28;20471;-65
2023/09/05 09:04:21;;;;;;;2.60;2.23;;;22.30;99.90;;;;;;5000039;28;20447;-62
2023/09/05 09:06:54;;;;;;;2.27;1.97;;;22.30;99.90;;;;;;4996239;28;20458;-62
2023/09/05 09:09:38;;;;;;;5.60;2.10;;;22.30;99.90;;;;;;5000847;28;20799;-62
2023/09/05 09:12:05;;;;;;;4.13;2.30;;;22.30;99.90;;;;;;4998152;28;20797;-62
2023/09/05 09:14:32;;;;;;;10.13;2.13;;;22.40;99.90;;;;;;4997549;28;21170;-64
2023/09/05 09:17:01;;;;;;;4.43;2.00;;;22.40;99.90;;;;;;4998875;28;20466;-63
2023/09/05 09:19:29;;;;;;;2.30;2.00;;;22.40;99.90;;;;;;5003593;28;20761;-62
2023/09/05 09:22:00;;;;;;;4.00;2.33;;;22.40;99.90;;;;;;4991915;28;20625;-60
2023/09/05 09:24:32;;;;;;;2.07;1.90;;;22.40;99.90;;;;;;4998545;28;20852;-61
2023/09/05 09:27:01;;;;;;;4.23;1.73;;;22.40;99.90;;;;;;5001179;28;20492;-60
2023/09/05 09:29:30;;;;;;;2.37;2.17;;;22.40;99.90;;;;;;5003789;28;20942;-58
2023/09/05 09:32:00;;;;;;;3.07;2.50;;;22.30;99.90;;;;;;4999605;28;20490;-61
2023/09/05 09:34:27;;;;;;;4.30;2.90;;;22.40;99.90;;;;;;5002002;28;20472;-62
2023/09/05 09:36:53;;;;;;;2.33;2.13;;;22.40;99.90;;;;;;4997989;28;20462;-61
2023/09/05 09:39:20;;;;;;;3.00;2.30;;;22.40;99.90;;;;;;4999961;28;20486;-61
2023/09/05 09:41:49;;;;;;;3.00;2.30;;;22.40;99.90;;;;;;4998782;28;20836;-62
2023/09/05 09:44:27;;;;;;;2.47;1.83;;;22.40;99.90;;;;;;5006206;28;20466;-62
2023/09/05 09:46:55;;;;;;;1.97;1.83;;;22.40;99.90;;;;;;5007724;28;20450;-61
2023/09/05 09:49:24;;;;;;;2.40;1.80;;;22.40;99.90;;;;;;5005769;28;20570;-61
2023/09/05 09:51:54;;;;;;;3.20;2.20;;;22.40;99.90;;;;;;5001807;28;21306;-61
2023/09/05 09:54:26;;;;;;;2.80;2.10;;;22.40;99.90;;;;;;5004513;28;20459;-60
2023/09/05 09:56:54;;;;;;;3.73;2.03;;;22.40;99.90;;;;;;5003366;28;21020;-60
2023/09/05 09:59:26;;;;;;;3.30;1.80;;;22.40;99.90;;;;;;5002192;28;20479;-60
2023/09/05 10:01:55;;;;;;;2.20;2.00;;;22.40;99.90;;;;;;5005842;28;20478;-60
2023/09/05 10:04:24;;;;;;;2.00;1.77;;;22.40;99.90;;;;;;5002038;28;20462;-60
2023/09/05 10:06:53;;;;;;;3.03;1.40;;;22.40;99.90;;;;;;4996377;28;20459;-60
2023/09/05 10:09:22;;;;;;;2.87;2.23;;;22.40;99.90;;;;;;5000106;28;20966;-61
2023/09/05 10:11:50;;;;;;;4.60;2.57;;;22.40;99.90;;;;;;5002831;28;20454;-63
2023/09/05 10:14:17;;;;;;;3.37;2.37;;;22.40;99.90;;;;;;5003701;28;20982;-59
2023/09/05 10:16:46;;;;;;;4.03;1.70;;;22.40;99.90;;;;;;5006183;28;20463;-61
2023/09/05 10:19:16;;;;;;;2.30;1.90;;;22.40;99.90;;;;;;5002956;28;20486;-61
2023/09/05 10:21:47;;;;;;;3.00;1.80;;;22.40;99.90;;;;;;5001084;28;20455;-66
2023/09/05 10:24:15;;;;;;;2.03;1.77;;;22.50;99.90;;;;;;5003683;28;20506;-65
2023/09/05 10:26:42;;;;;;;3.43;1.97;;;22.50;99.90;;;;;;4998449;28;20541;-66
2023/09/05 10:29:31;;;;;;;1.80;1.67;;;22.50;99.90;;;;;;4998065;28;20470;-67
2023/09/05 10:31:57;;;;;;;2.40;2.20;;;22.50;99.90;;;;;;4996167;28;20467;-68
2023/09/05 10:35:02;;;;;;;3.43;1.80;;;22.50;99.90;;;;;;4999058;28;20458;-63
2023/09/05 10:37:43;;;;;;;2.67;2.20;;;22.50;99.90;;;;;;5000190;28;20932;-59
2023/09/05 10:40:11;;;;;;;2.43;2.17;;;22.50;99.90;;;;;;5009660;28;20466;-59
2023/09/05 10:42:43;;;;;;;2.40;2.20;;;22.50;99.90;;;;;;5009638;28;20452;-65
2023/09/05 10:45:30;;;;;;;2.40;1.83;;;22.50;99.90;;;;;;5007801;28;20492;-65
2023/09/05 10:48:00;;;;;;;1.87;1.63;;;22.60;99.90;;;;;;5013266;28;20815;-64
2023/09/05 10:50:29;;;;;;;2.23;2.00;;;22.60;99.90;;;;;;5015921;28;20442;-65
2023/09/05 10:53:23;;;;;;;2.23;1.77;;;22.60;99.90;;;;;;5014095;28;20469;-65
2023/09/05 10:55:54;;;;;;;2.30;2.10;;;22.60;99.90;;;;;;4978976;28;20481;-65
2023/09/05 10:58:40;;;;;;;3.40;1.87;;;22.70;99.90;;;;;;5011137;28;20489;-65
2023/09/05 11:01:44;;;;;;;2.57;2.37;;;22.70;99.90;;;;;;5006385;28;20473;-64
2023/09/05 11:04:29;;;;;;;2.20;2.00;;;22.70;99.90;;;;;;5002776;28;20459;-65
2023/09/05 11:07:03;;;;;;;5.83;2.07;;;22.70;99.90;;;;;;5003288;28;20465;-64
2023/09/05 11:09:39;;;;;;;1.87;1.67;;;22.80;99.90;;;;;;4999821;28;20897;-65
2023/09/05 11:12:06;;;;;;;4.50;2.50;;;22.80;99.90;;;;;;4997899;28;20460;-62
2023/09/05 11:14:34;;;;;;;1.83;1.70;;;22.80;99.90;;;;;;5003068;28;20466;-63
2023/09/05 11:17:02;;;;;;;4.13;2.10;;;22.90;99.90;;;;;;5005055;28;20471;-63
2023/09/05 11:19:30;;;;;;;2.93;1.97;;;22.90;99.90;;;;;;5006808;28;20500;-63
2023/09/05 11:22:10;;;;;;;1.97;1.47;;;22.90;99.90;;;;;;5003428;28;20460;-63
2023/09/05 11:24:37;;;;;;;1.80;1.70;;;22.90;99.90;;;;;;5003425;28;20448;-66
2023/09/05 11:27:06;;;;;;;3.40;1.60;;;23.00;99.90;;;;;;4998720;28;21207;-62
2023/09/05 11:29:34;;;;;;;4.33;1.60;;;23.00;99.90;;;;;;5002209;28;20484;-62
2023/09/05 11:32:01;;;;;;;1.80;1.60;;;23.00;99.90;;;;;;4999739;28;20472;-67
2023/09/05 11:34:28;;;;;;;2.17;1.97;;;23.10;99.90;;;;;;5002253;28;20526;-66
2023/09/05 11:36:56;;;;;;;2.27;2.07;;;23.10;99.90;;;;;;5001330;28;20448;-65
2023/09/05 11:39:28;;;;;;;2.30;2.10;;;23.10;99.90;;;;;;5004027;28;20565;-64
2023/09/05 11:41:58;;;;;;;4.50;1.60;;;23.10;99.90;;;;;;5001301;28;20546;-64
2023/09/05 11:44:32;;;;;;;3.77;1.83;;;23.10;99.90;;;;;;4999318;28;20647;-66
2023/09/05 11:47:00;;;;;;;4.17;1.77;;;23.10;99.90;;;;;;5000810;28;20639;-66
2023/09/05 11:49:27;;;;;;;1.70;1.60;;;23.20;99.90;;;;;;5004549;28;21193;-63
2023/09/05 11:51:54;;;;;;;1.97;1.57;;;23.20;99.90;;;;;;5002995;28;20459;-61
2023/09/05 11:54:21;;;;;;;2.00;1.80;;;23.20;99.90;;;;;;4995866;28;20500;-64
2023/09/05 11:56:50;;;;;;;2.27;1.60;;;23.20;99.90;;;;;;4996370;28;20471;-64
2023/09/05 11:59:17;;;;;;;1.80;1.67;;;23.20;99.90;;;;;;5002142;28;20492;-64
2023/09/05 12:01:44;;;;;;;1.70;1.50;;;23.20;99.90;;;;;;4997976;28;20679;-66
2023/09/05 12:04:11;;;;;;;1.50;1.40;;;23.20;99.90;;;;;;5000981;28;20465;-58
2023/09/05 12:06:38;;;;;;;2.97;1.63;;;23.30;99.90;;;;;;5003583;28;20485;-56
2023/09/05 12:09:09;;;;;;;3.40;1.40;;;23.30;99.90;;;;;;5005276;28;21010;-62
2023/09/05 12:11:35;;;;;;;6.10;1.60;;;23.30;99.90;;;;;;5006230;28;20458;-58
2023/09/05 12:14:04;;;;;;;4.40;2.00;;;23.30;99.90;;;;;;4997623;28;20460;-62
2023/09/05 12:16:31;;;;;;;7.03;2.17;;;23.30;99.90;;;;;;5003817;28;20461;-62
2023/09/05 12:18:59;;;;;;;1.50;1.30;;;23.40;99.90;;;;;;5002721;28;20497;-61
2023/09/05 12:21:28;;;;;;;2.03;1.50;;;23.40;99.90;;;;;;4999714;28;20541;-60
2023/09/05 12:23:55;;;;;;;1.70;1.50;;;23.40;99.90;;;;;;4993700;28;20855;-60
2023/09/05 12:26:38;;;;;;;1.67;1.33;;;23.40;99.90;;;;;;4999946;28;21185;-61
2023/09/05 12:29:06;;;;;;;2.30;1.60;;;23.40;99.90;;;;;;5001706;28;20463;-58
2023/09/05 12:31:35;;;;;;;4.83;1.50;;;23.40;99.90;;;;;;5002719;28;20784;-59
2023/09/05 12:34:02;;;;;;;2.67;1.60;;;23.40;99.90;;;;;;4999933;28;20465;-61
2023/09/05 12:36:29;;;;;;;2.30;1.80;;;23.40;99.90;;;;;;4999145;28;20492;-60
2023/09/05 12:38:56;;;;;;;1.50;1.40;;;23.40;99.90;;;;;;5002946;28;20525;-64
2023/09/05 12:41:22;;;;;;;2.60;1.40;;;23.40;99.90;;;;;;5004634;28;20464;-64
2023/09/05 12:43:49;;;;;;;2.53;1.50;;;23.40;99.90;;;;;;5004977;28;20471;-61
2023/09/05 12:46:17;;;;;;;1.60;1.40;;;23.40;99.90;;;;;;5005318;28;20987;-62
2023/09/05 12:48:44;;;;;;;1.63;1.23;;;23.40;99.90;;;;;;5008075;28;20477;-59
2023/09/05 12:51:11;;;;;;;1.87;1.40;;;23.50;99.90;;;;;;5009899;28;20577;-59
2023/09/05 12:53:38;;;;;;;5.20;1.50;;;23.50;99.90;;;;;;5008768;28;20959;-59
2023/09/05 12:56:08;;;;;;;3.10;1.60;;;23.50;99.90;;;;;;5010168;28;24214;-58
2023/09/05 12:58:35;;;;;;;1.50;1.30;;;23.50;99.90;;;;;;5004817;28;20488;-61